Bryceville, Florida
Current Conditions -  °F | °C
As of 9:50 AM on Tuesday 21 Oct 2014 (Local Time) from KVQQ Reporting Station
Clear Clear  
Wind Chill: 70°   Ceiling: Unl
Heat Index: 70°   Visibility: 10mi
Dew Point: 66°   Wind: 6mph
Humidity: 88%   Direction: 360°N
Pressure: 30"   Gusts: NA
Location:  30.39°N, 81.94°W
Report Text: KVQQ 211350Z 36005KT 10SM CLR 21/19 A3000
Loading
Personal Weather Stations






























Interactive Weather Map
Tropical Storm Tracking
New forecast layout! Learn more

10-Day Weather Forecast

Advertisements
Track Severe Weather on mobile